createdAt,value
2022-10-08T00:02:00.143Z,20.00
2022-10-08T00:04:26.904Z,20.00
2022-10-08T00:06:53.750Z,20.00
2022-10-08T00:09:20.405Z,20.00
2022-10-08T00:11:47.092Z,20.00
2022-10-08T00:14:14.091Z,20.00
2022-10-08T00:16:41.290Z,20.00
2022-10-08T00:19:12.511Z,20.00
2022-10-08T00:21:40.664Z,20.00
2022-10-08T00:24:08.256Z,20.00
2022-10-08T00:26:41.127Z,20.00
2022-10-08T00:29:11.276Z,20.00
2022-10-08T00:31:39.244Z,20.00
2022-10-08T00:34:10.382Z,20.00
2022-10-08T00:36:38.190Z,20.00
2022-10-08T00:39:06.476Z,20.00
2022-10-08T00:41:34.418Z,20.00
2022-10-08T00:44:04.492Z,19.90
2022-10-08T00:46:39.545Z,19.90
2022-10-08T00:49:12.313Z,19.90
2022-10-08T00:51:51.045Z,20.00
2022-10-08T00:54:19.112Z,19.90
2022-10-08T00:56:47.619Z,19.90
2022-10-08T00:59:14.667Z,20.00
2022-10-08T01:01:43.428Z,19.90
2022-10-08T01:04:10.656Z,19.90
2022-10-08T01:07:06.439Z,20.00
2022-10-08T01:09:35.454Z,19.90
2022-10-08T01:12:08.526Z,19.90
2022-10-08T01:14:52.673Z,19.90
2022-10-08T01:17:31.476Z,19.90
2022-10-08T01:20:12.947Z,19.90
2022-10-08T01:22:42.675Z,19.90
2022-10-08T01:25:44.971Z,19.90
2022-10-08T01:28:32.427Z,19.90
2022-10-08T01:31:11.361Z,19.80
2022-10-08T01:33:42.938Z,19.80
2022-10-08T01:36:11.189Z,19.80
2022-10-08T01:38:41.198Z,19.80
2022-10-08T01:41:09.479Z,19.70
2022-10-08T01:43:38.106Z,19.80
2022-10-08T01:46:14.516Z,19.80
2022-10-08T01:48:42.254Z,19.80
2022-10-08T01:51:13.866Z,19.80
2022-10-08T01:53:41.809Z,19.80
2022-10-08T01:56:10.724Z,19.80
2022-10-08T01:58:57.631Z,19.80
2022-10-08T02:01:30.221Z,19.80
2022-10-08T02:04:15.623Z,19.80
2022-10-08T02:06:45.181Z,19.80
2022-10-08T02:09:11.837Z,19.80
2022-10-08T02:11:38.552Z,19.80
2022-10-08T02:14:05.696Z,19.80
2022-10-08T02:16:33.109Z,19.80
2022-10-08T02:19:07.060Z,19.70
2022-10-08T02:21:35.008Z,19.80
2022-10-08T02:24:07.446Z,19.70
2022-10-08T02:26:37.048Z,19.80
2022-10-08T02:29:07.968Z,19.70
2022-10-08T02:31:36.748Z,19.70
2022-10-08T02:34:06.938Z,19.70
2022-10-08T02:36:37.927Z,19.70
2022-10-08T02:39:05.235Z,19.70
2022-10-08T02:41:34.920Z,19.70
2022-10-08T02:44:06.033Z,19.70
2022-10-08T02:46:35.159Z,19.70
2022-10-08T02:49:06.592Z,19.70
2022-10-08T02:51:36.502Z,19.70
2022-10-08T02:54:04.403Z,19.70
2022-10-08T02:56:36.304Z,19.70
2022-10-08T02:59:05.093Z,19.70
2022-10-08T03:01:39.208Z,19.60
2022-10-08T03:04:11.128Z,19.60
2022-10-08T03:06:37.913Z,19.60
2022-10-08T03:09:06.807Z,19.60
2022-10-08T03:11:34.183Z,19.70
2022-10-08T03:14:03.339Z,19.60
2022-10-08T03:16:40.409Z,19.60
2022-10-08T03:19:07.869Z,19.60
2022-10-08T03:21:34.775Z,19.70
2022-10-08T03:24:01.586Z,19.60
2022-10-08T03:26:28.249Z,19.60
2022-10-08T03:28:54.885Z,19.60
2022-10-08T03:31:21.555Z,19.60
2022-10-08T03:33:51.746Z,19.60
2022-10-08T03:36:18.544Z,19.50
2022-10-08T03:38:45.358Z,19.50
2022-10-08T03:41:12.039Z,19.50
2022-10-08T03:43:38.723Z,19.50
2022-10-08T03:46:05.984Z,19.50
2022-10-08T03:48:33.071Z,19.50
2022-10-08T03:51:00.927Z,19.50
2022-10-08T03:53:27.783Z,19.50
2022-10-08T03:55:54.478Z,19.50
2022-10-08T03:58:21.368Z,19.50
2022-10-08T04:00:58.277Z,19.50
2022-10-08T04:03:25.463Z,19.50
2022-10-08T04:05:52.524Z,19.50
2022-10-08T04:08:19.284Z,19.60
2022-10-08T04:10:45.913Z,19.50
2022-10-08T04:13:12.641Z,19.50
2022-10-08T04:15:39.272Z,19.50
2022-10-08T04:18:07.163Z,19.50
2022-10-08T04:20:34.093Z,19.50
2022-10-08T04:23:00.742Z,19.50
2022-10-08T04:25:27.404Z,19.50
2022-10-08T04:27:54.057Z,19.50
2022-10-08T04:30:20.748Z,19.50
2022-10-08T04:32:47.573Z,19.40
2022-10-08T04:35:14.407Z,19.40
2022-10-08T04:37:41.045Z,19.40
2022-10-08T04:40:08.256Z,19.40
2022-10-08T04:42:35.061Z,19.40
2022-10-08T04:45:01.709Z,19.40
2022-10-08T04:47:28.443Z,19.40
2022-10-08T04:49:55.088Z,19.40
2022-10-08T04:52:21.868Z,19.40
2022-10-08T04:54:48.667Z,19.40
2022-10-08T04:57:15.486Z,19.40
2022-10-08T05:00:05.770Z,19.40
2022-10-08T05:02:29.052Z,19.40
2022-10-08T05:04:55.824Z,19.40
2022-10-08T05:07:22.531Z,19.40
2022-10-08T05:09:49.396Z,19.40
2022-10-08T05:12:16.124Z,19.30
2022-10-08T05:14:42.796Z,19.30
2022-10-08T05:17:09.479Z,19.40
2022-10-08T05:19:36.208Z,19.30
2022-10-08T05:22:02.869Z,19.30
2022-10-08T05:24:29.519Z,19.30
2022-10-08T05:26:58.882Z,19.30
2022-10-08T05:29:26.129Z,19.30
2022-10-08T05:31:53.054Z,19.30
2022-10-08T05:34:19.863Z,19.30
2022-10-08T05:36:46.615Z,19.30
2022-10-08T05:39:13.720Z,19.30
2022-10-08T05:41:40.877Z,19.30
2022-10-08T05:44:07.866Z,19.30
2022-10-08T05:46:35.717Z,19.30
2022-10-08T05:49:03.940Z,19.30
2022-10-08T05:51:30.900Z,19.30
2022-10-08T05:53:58.651Z,19.30
2022-10-08T05:56:25.887Z,19.30
2022-10-08T05:58:53.047Z,19.30
2022-10-08T06:01:21.219Z,19.30
2022-10-08T06:03:49.001Z,19.30
2022-10-08T06:06:15.706Z,19.30
2022-10-08T06:08:42.349Z,19.30
2022-10-08T06:11:09.046Z,19.30
2022-10-08T06:13:35.925Z,19.30
2022-10-08T06:16:04.072Z,19.30
2022-10-08T06:18:31.971Z,19.30
2022-10-08T06:21:02.574Z,19.30
2022-10-08T06:23:29.300Z,19.30
2022-10-08T06:25:55.999Z,19.30
2022-10-08T06:28:22.733Z,19.20
2022-10-08T06:30:49.423Z,19.20
2022-10-08T06:33:16.879Z,19.20
2022-10-08T06:35:43.604Z,19.20
2022-10-08T06:38:10.299Z,19.20
2022-10-08T06:40:39.133Z,19.20
2022-10-08T06:43:07.649Z,19.20
2022-10-08T06:45:42.107Z,19.20
2022-10-08T06:48:09.155Z,19.20
2022-10-08T06:50:36.198Z,19.20
2022-10-08T06:53:03.956Z,19.20
2022-10-08T06:55:31.395Z,19.20
2022-10-08T06:57:58.111Z,19.10
2022-10-08T07:00:24.844Z,19.10
2022-10-08T07:02:51.791Z,19.10
2022-10-08T07:05:18.859Z,19.10
2022-10-08T07:07:45.582Z,19.10
2022-10-08T07:10:12.303Z,19.10
2022-10-08T07:12:39.019Z,19.10
2022-10-08T07:15:05.865Z,19.10
2022-10-08T07:17:32.683Z,19.00
2022-10-08T07:19:59.475Z,19.00
2022-10-08T07:22:26.173Z,19.00
2022-10-08T07:24:52.844Z,19.00
2022-10-08T07:27:20.129Z,18.90
2022-10-08T07:29:46.915Z,18.90
2022-10-08T07:32:13.600Z,18.90
2022-10-08T07:34:40.294Z,18.90
2022-10-08T07:37:06.972Z,18.90
2022-10-08T07:39:33.657Z,18.90
2022-10-08T07:42:00.332Z,18.90
2022-10-08T07:44:27.022Z,18.90
2022-10-08T07:46:54.046Z,18.90
2022-10-08T07:49:20.948Z,18.90
2022-10-08T07:51:48.151Z,18.90
2022-10-08T07:54:16.059Z,18.80
2022-10-08T07:56:42.791Z,18.80
2022-10-08T07:59:09.599Z,18.90
2022-10-08T08:01:36.364Z,18.80
2022-10-08T08:04:05.176Z,18.90
2022-10-08T08:06:32.818Z,18.90
2022-10-08T08:08:59.872Z,18.90
2022-10-08T08:11:26.640Z,18.90
2022-10-08T08:13:53.420Z,18.80
2022-10-08T08:16:21.681Z,18.80
2022-10-08T08:18:49.474Z,18.80
2022-10-08T08:21:17.488Z,18.90
2022-10-08T08:23:45.306Z,19.00
2022-10-08T08:26:13.335Z,19.00
2022-10-08T08:28:40.493Z,19.10
2022-10-08T08:31:14.945Z,19.20
2022-10-08T08:33:42.535Z,19.40
2022-10-08T08:36:09.372Z,19.50
2022-10-08T08:38:36.836Z,19.50
2022-10-08T08:41:21.926Z,19.60
2022-10-08T08:43:48.621Z,19.60
2022-10-08T08:46:18.934Z,19.60
2022-10-08T08:48:45.983Z,19.60
2022-10-08T08:51:12.694Z,19.60
2022-10-08T08:53:39.384Z,19.60
2022-10-08T08:56:08.159Z,19.60
2022-10-08T08:58:35.709Z,19.60
2022-10-08T09:01:08.579Z,19.70
2022-10-08T09:03:44.116Z,19.70
2022-10-08T09:06:14.286Z,19.70
2022-10-08T09:08:43.454Z,19.80
2022-10-08T09:11:13.224Z,19.80
2022-10-08T09:13:43.264Z,19.80
2022-10-08T09:16:12.458Z,19.80
2022-10-08T09:18:40.256Z,19.80
2022-10-08T09:21:06.979Z,19.80
2022-10-08T09:23:34.332Z,19.80
2022-10-08T09:26:03.835Z,19.80
2022-10-08T09:28:37.936Z,19.80
2022-10-08T09:31:12.539Z,19.80
2022-10-08T09:33:39.898Z,19.90
2022-10-08T09:36:06.558Z,19.90
2022-10-08T09:38:35.912Z,20.00
2022-10-08T09:41:07.053Z,20.00
2022-10-08T09:43:34.555Z,20.00
2022-10-08T09:46:05.580Z,20.00
2022-10-08T09:48:32.359Z,20.00
2022-10-08T09:51:01.454Z,20.10
2022-10-08T09:53:48.507Z,20.10
2022-10-08T09:56:15.512Z,20.10
2022-10-08T09:58:48.278Z,20.10
2022-10-08T10:01:16.233Z,20.10
2022-10-08T10:03:51.025Z,20.10
2022-10-08T10:06:24.735Z,20.10
2022-10-08T10:08:56.899Z,20.10
2022-10-08T10:11:29.361Z,20.10
2022-10-08T10:13:57.387Z,20.10
2022-10-08T10:16:27.021Z,20.10
2022-10-08T10:19:00.601Z,20.10
2022-10-08T10:21:35.016Z,20.10
2022-10-08T10:24:19.791Z,20.10
2022-10-08T10:26:47.211Z,20.10
2022-10-08T10:29:20.123Z,20.10
2022-10-08T10:32:03.047Z,20.10
2022-10-08T10:34:32.972Z,20.10
2022-10-08T10:37:18.970Z,20.20
2022-10-08T10:39:45.667Z,20.20
2022-10-08T10:42:21.568Z,20.10
2022-10-08T10:44:56.108Z,20.10
2022-10-08T10:47:28.254Z,20.10
2022-10-08T10:49:58.219Z,20.10
2022-10-08T10:52:24.814Z,20.00
2022-10-08T10:54:51.434Z,20.00
2022-10-08T10:57:26.679Z,20.00
2022-10-08T10:59:56.336Z,20.00
2022-10-08T11:02:26.715Z,20.00
2022-10-08T11:05:01.760Z,19.90
2022-10-08T11:07:37.312Z,19.90
2022-10-08T11:10:22.762Z,19.90
2022-10-08T11:13:07.649Z,19.90
2022-10-08T11:15:42.060Z,19.90
2022-10-08T11:18:15.074Z,19.90
2022-10-08T11:21:06.156Z,19.90
2022-10-08T11:23:51.547Z,19.90
2022-10-08T11:26:25.275Z,19.90
2022-10-08T11:29:09.435Z,19.90
2022-10-08T11:31:36.121Z,19.90
2022-10-08T11:34:03.789Z,19.90
2022-10-08T11:36:36.393Z,20.00
2022-10-08T11:39:06.468Z,19.90
2022-10-08T11:41:39.087Z,20.00
2022-10-08T11:44:08.943Z,20.00
2022-10-08T11:46:36.574Z,20.00
2022-10-08T11:49:12.211Z,20.00
2022-10-08T11:51:39.855Z,20.00
2022-10-08T11:54:09.680Z,20.00
2022-10-08T11:56:38.732Z,20.00
2022-10-08T11:59:28.083Z,20.00
2022-10-08T12:01:56.361Z,20.00
2022-10-08T12:04:27.313Z,20.00
2022-10-08T12:07:06.415Z,20.00
2022-10-08T12:09:55.823Z,20.00
2022-10-08T12:12:22.940Z,19.90
2022-10-08T12:14:49.655Z,19.90
2022-10-08T12:17:16.713Z,19.90
2022-10-08T12:19:44.407Z,19.90
2022-10-08T12:22:14.238Z,19.90
2022-10-08T12:24:42.927Z,19.90
2022-10-08T12:27:17.629Z,19.80
2022-10-08T12:30:01.733Z,19.80
2022-10-08T12:32:31.592Z,19.80
2022-10-08T12:34:59.040Z,19.80
2022-10-08T12:37:37.952Z,19.80
2022-10-08T12:40:27.638Z,19.80
2022-10-08T12:42:58.996Z,19.80
2022-10-08T12:45:39.408Z,19.80
2022-10-08T12:48:17.119Z,19.80
2022-10-08T12:50:53.067Z,19.80
2022-10-08T12:53:19.868Z,19.80
2022-10-08T12:55:48.886Z,19.80
2022-10-08T12:58:20.624Z,19.70
2022-10-08T13:00:55.537Z,19.70
2022-10-08T13:03:22.389Z,19.70
2022-10-08T13:05:49.128Z,19.70
2022-10-08T13:08:31.171Z,19.70
2022-10-08T13:10:59.253Z,19.70
2022-10-08T13:13:41.052Z,19.70
2022-10-08T13:16:21.245Z,19.80
2022-10-08T13:18:49.544Z,19.70
2022-10-08T13:21:31.433Z,19.70
2022-10-08T13:23:58.989Z,19.70
2022-10-08T13:26:44.938Z,19.80
2022-10-08T13:29:23.808Z,19.80
2022-10-08T13:31:59.517Z,19.80
2022-10-08T13:34:34.599Z,19.80
2022-10-08T13:37:02.544Z,19.80
2022-10-08T13:39:34.639Z,19.80
2022-10-08T13:42:02.807Z,19.80
2022-10-08T13:44:29.511Z,19.80
2022-10-08T13:47:00.091Z,19.80
2022-10-08T13:49:29.813Z,19.80
2022-10-08T13:51:57.658Z,19.80
2022-10-08T13:54:30.965Z,19.80
2022-10-08T13:56:57.955Z,19.80
2022-10-08T13:59:29.587Z,19.80
2022-10-08T14:01:57.431Z,19.80
2022-10-08T14:04:24.198Z,19.80
2022-10-08T14:06:53.091Z,19.80
2022-10-08T14:09:21.196Z,19.80
2022-10-08T14:11:50.606Z,19.80
2022-10-08T14:14:17.282Z,19.80
2022-10-08T14:16:44.082Z,19.80
2022-10-08T14:19:12.299Z,19.90
2022-10-08T14:21:39.757Z,19.90
2022-10-08T14:24:06.939Z,19.90
2022-10-08T14:26:34.137Z,19.90
2022-10-08T14:29:00.799Z,19.90
2022-10-08T14:31:30.607Z,20.00
2022-10-08T14:33:57.313Z,20.00
2022-10-08T14:36:26.543Z,20.00
2022-10-08T14:38:53.270Z,20.00
2022-10-08T14:41:19.943Z,20.00
2022-10-08T14:43:46.626Z,20.00
2022-10-08T14:46:13.372Z,20.00
2022-10-08T14:48:40.145Z,20.10
2022-10-08T14:51:06.757Z,20.10
2022-10-08T14:53:33.448Z,20.10
2022-10-08T14:56:11.935Z,20.10
2022-10-08T14:58:39.461Z,20.20
2022-10-08T15:01:06.308Z,20.20
2022-10-08T15:03:33.056Z,20.20
2022-10-08T15:06:00.929Z,20.20
2022-10-08T15:08:28.252Z,20.10
2022-10-08T15:10:54.950Z,20.10
2022-10-08T15:13:21.695Z,20.10
2022-10-08T15:15:48.368Z,20.10
2022-10-08T15:18:15.120Z,20.10
2022-10-08T15:20:41.821Z,20.10
2022-10-08T15:23:10.287Z,20.10
2022-10-08T15:25:37.167Z,20.20
2022-10-08T15:28:04.334Z,20.20
2022-10-08T15:30:31.092Z,20.20
2022-10-08T15:33:02.093Z,20.20
2022-10-08T15:35:28.766Z,20.10
2022-10-08T15:37:55.440Z,20.10
2022-10-08T15:40:22.113Z,20.10
2022-10-08T15:42:51.022Z,20.00
2022-10-08T15:45:17.667Z,20.00
2022-10-08T15:47:44.462Z,20.00
2022-10-08T15:50:11.107Z,20.00
2022-10-08T15:52:37.845Z,20.00
2022-10-08T15:55:04.658Z,20.00
2022-10-08T15:57:31.391Z,20.00
2022-10-08T15:59:58.322Z,20.00
2022-10-08T16:02:25.174Z,20.00
2022-10-08T16:04:53.206Z,20.00
2022-10-08T16:07:20.403Z,20.00
2022-10-08T16:09:47.165Z,20.00
2022-10-08T16:12:13.817Z,20.00
2022-10-08T16:14:40.485Z,19.90
2022-10-08T16:17:07.675Z,20.00
2022-10-08T16:19:34.471Z,19.90
2022-10-08T16:22:01.305Z,19.90
2022-10-08T16:24:28.038Z,19.90
2022-10-08T16:26:55.439Z,19.90
2022-10-08T16:29:22.120Z,19.90
2022-10-08T16:31:48.883Z,19.90
2022-10-08T16:34:16.919Z,19.90
2022-10-08T16:36:43.920Z,19.80
2022-10-08T16:39:11.298Z,19.80
2022-10-08T16:41:38.066Z,19.80
2022-10-08T16:44:11.157Z,19.70
2022-10-08T16:46:39.671Z,19.70
2022-10-08T16:49:07.845Z,19.70
2022-10-08T16:51:35.621Z,19.70
2022-10-08T16:54:03.064Z,19.70
2022-10-08T16:56:31.519Z,19.70
2022-10-08T16:59:02.401Z,19.70
2022-10-08T17:01:29.191Z,19.70
2022-10-08T17:03:56.390Z,19.70
2022-10-08T17:06:24.019Z,19.70
2022-10-08T17:08:51.614Z,19.60
2022-10-08T17:11:18.840Z,19.60
2022-10-08T17:13:46.740Z,19.60
2022-10-08T17:16:13.788Z,19.60
2022-10-08T17:18:40.743Z,19.70
2022-10-08T17:21:07.470Z,19.60
2022-10-08T17:23:36.803Z,19.60
2022-10-08T17:26:11.337Z,19.60
2022-10-08T17:28:39.244Z,19.60
2022-10-08T17:31:06.765Z,19.70
2022-10-08T17:33:36.017Z,19.60
2022-10-08T17:36:06.891Z,19.60
2022-10-08T17:38:34.279Z,19.60
2022-10-08T17:41:00.972Z,19.60
2022-10-08T17:43:27.666Z,19.60
2022-10-08T17:45:54.500Z,19.60
2022-10-08T17:48:21.322Z,19.60
2022-10-08T17:50:48.023Z,19.60
2022-10-08T17:53:14.819Z,19.60
2022-10-08T17:55:41.454Z,19.60
2022-10-08T17:58:08.159Z,19.60
2022-10-08T18:00:34.841Z,19.60
2022-10-08T18:03:01.641Z,19.60
2022-10-08T18:05:28.467Z,19.60
2022-10-08T18:07:55.139Z,19.60
2022-10-08T18:10:21.903Z,19.60
2022-10-08T18:12:48.849Z,19.60
2022-10-08T18:15:15.754Z,19.60
2022-10-08T18:17:42.503Z,19.60
2022-10-08T18:20:09.309Z,19.60
2022-10-08T18:22:36.040Z,19.60
2022-10-08T18:25:03.875Z,19.60
2022-10-08T18:27:30.728Z,19.60
2022-10-08T18:29:57.375Z,19.60
2022-10-08T18:32:24.245Z,19.60
2022-10-08T18:34:51.266Z,19.70
2022-10-08T18:37:18.319Z,19.70
2022-10-08T18:39:44.985Z,19.70
2022-10-08T18:42:11.647Z,19.70
2022-10-08T18:44:38.313Z,19.60
2022-10-08T18:47:05.635Z,19.60
2022-10-08T18:49:33.616Z,19.50
2022-10-08T18:52:01.396Z,19.50
2022-10-08T18:54:28.332Z,19.50
2022-10-08T18:56:56.711Z,19.50
2022-10-08T18:59:23.432Z,19.50
2022-10-08T19:01:50.211Z,19.50
2022-10-08T19:04:18.939Z,19.50
2022-10-08T19:06:46.623Z,19.50
2022-10-08T19:09:13.628Z,19.50
2022-10-08T19:11:50.925Z,19.60
2022-10-08T19:14:19.221Z,19.60
2022-10-08T19:16:45.948Z,19.60
2022-10-08T19:19:14.131Z,19.60
2022-10-08T19:21:41.497Z,19.60
2022-10-08T19:24:10.761Z,19.60
2022-10-08T19:26:37.681Z,19.60
2022-10-08T19:29:04.437Z,19.60
2022-10-08T19:31:32.407Z,19.60
2022-10-08T19:34:03.623Z,19.60
2022-10-08T19:36:31.712Z,19.60
2022-10-08T19:39:02.750Z,19.60
2022-10-08T19:41:29.535Z,19.60
2022-10-08T19:43:57.150Z,19.60
2022-10-08T19:46:24.599Z,19.60
2022-10-08T19:48:58.678Z,19.60
2022-10-08T19:51:26.204Z,19.60
2022-10-08T19:53:53.452Z,19.60
2022-10-08T19:56:21.214Z,19.60
2022-10-08T19:58:49.609Z,19.60
2022-10-08T20:01:17.555Z,19.60
2022-10-08T20:03:44.501Z,19.60
2022-10-08T20:06:12.983Z,19.60
2022-10-08T20:08:39.869Z,19.60
2022-10-08T20:11:17.199Z,19.60
2022-10-08T20:13:44.799Z,19.60
2022-10-08T20:16:12.960Z,19.60
2022-10-08T20:18:39.933Z,19.60
2022-10-08T20:21:07.644Z,19.60
2022-10-08T20:23:34.547Z,19.60
2022-10-08T20:26:27.389Z,19.60
2022-10-08T20:28:56.724Z,19.60
2022-10-08T20:31:25.097Z,19.60
2022-10-08T20:33:59.211Z,19.50
2022-10-08T20:36:26.187Z,19.50
2022-10-08T20:38:53.267Z,19.50
2022-10-08T20:41:20.259Z,19.50
2022-10-08T20:43:47.159Z,19.50
2022-10-08T20:46:15.023Z,19.50
2022-10-08T20:48:43.048Z,19.50
2022-10-08T20:51:12.405Z,19.50
2022-10-08T20:53:39.532Z,19.50
2022-10-08T20:56:10.710Z,19.50
2022-10-08T20:58:37.692Z,19.50
2022-10-08T21:01:08.692Z,19.50
2022-10-08T21:03:36.233Z,19.50
2022-10-08T21:06:08.475Z,19.50
2022-10-08T21:08:39.111Z,19.50
2022-10-08T21:11:06.595Z,19.50
2022-10-08T21:13:33.803Z,19.50
2022-10-08T21:16:04.443Z,19.50
2022-10-08T21:18:31.370Z,19.50
2022-10-08T21:21:11.698Z,19.50
2022-10-08T21:23:38.832Z,19.50
2022-10-08T21:26:06.737Z,19.50
2022-10-08T21:28:33.867Z,19.50
2022-10-08T21:31:03.896Z,19.50
2022-10-08T21:33:34.100Z,19.40
2022-10-08T21:36:00.927Z,19.40
2022-10-08T21:38:27.549Z,19.40
2022-10-08T21:40:54.927Z,19.40
2022-10-08T21:43:21.581Z,19.40
2022-10-08T21:45:55.803Z,19.40
2022-10-08T21:48:23.356Z,19.40
2022-10-08T21:50:56.024Z,19.40
2022-10-08T21:53:23.093Z,19.40
2022-10-08T21:55:56.724Z,19.40
2022-10-08T21:58:24.831Z,19.30
2022-10-08T22:00:51.829Z,19.30
2022-10-08T22:03:18.989Z,19.40
2022-10-08T22:05:49.785Z,19.40
2022-10-08T22:08:16.476Z,19.40
2022-10-08T22:10:43.236Z,19.40
2022-10-08T22:13:09.965Z,19.40
2022-10-08T22:15:36.633Z,19.30
2022-10-08T22:18:03.383Z,19.30
2022-10-08T22:20:30.000Z,19.30
2022-10-08T22:22:56.732Z,19.30
2022-10-08T22:25:23.381Z,19.30
2022-10-08T22:27:50.054Z,19.30
2022-10-08T22:30:16.788Z,19.40
2022-10-08T22:32:43.431Z,19.30
2022-10-08T22:35:10.193Z,19.30
2022-10-08T22:37:37.033Z,19.30
2022-10-08T22:40:03.839Z,19.30
2022-10-08T22:42:30.600Z,19.30
2022-10-08T22:44:57.315Z,19.20
2022-10-08T22:47:23.976Z,19.20
2022-10-08T22:49:50.655Z,19.20
2022-10-08T22:52:17.450Z,19.20
2022-10-08T22:54:44.113Z,19.20
2022-10-08T22:57:10.863Z,19.20
2022-10-08T22:59:37.539Z,19.20
2022-10-08T23:02:04.287Z,19.20
2022-10-08T23:04:31.075Z,19.20
2022-10-08T23:06:57.904Z,19.20
2022-10-08T23:09:24.532Z,19.20
2022-10-08T23:11:51.343Z,19.20
2022-10-08T23:14:17.984Z,19.20
2022-10-08T23:16:44.739Z,19.20
2022-10-08T23:19:11.703Z,19.20
2022-10-08T23:21:38.668Z,19.20
2022-10-08T23:24:05.656Z,19.20
2022-10-08T23:26:32.443Z,19.20
2022-10-08T23:28:59.984Z,19.20
2022-10-08T23:31:28.096Z,19.20
2022-10-08T23:33:55.320Z,19.10
2022-10-08T23:36:23.717Z,19.10
2022-10-08T23:38:50.638Z,19.10
2022-10-08T23:41:17.393Z,19.10
2022-10-08T23:43:45.444Z,19.10
2022-10-08T23:46:13.371Z,19.10
2022-10-08T23:48:40.057Z,19.10
2022-10-08T23:51:06.959Z,19.10
2022-10-08T23:53:34.230Z,19.10
2022-10-08T23:56:00.996Z,19.10
2022-10-08T23:58:27.988Z,19.10
